TRAVEL WEATHER INFO - USA

NOAA Site Locator - Search for Station Information

CITY Forecast Link METAR Identifier Last Updated Temperature Dew Point Humidity Pressure Wind Direction Wind Speed Wind Gust Weather Rain/hr Google Maps
Albuqueque WEATHER KABQ 07/27/2020 19:52 82.4 55.4 40 30.15 --- 0 0 Scattered Clouds --- Albuquerque, NM Map
Anchorage WEATHER PAED 07/27/2020 19:56 66.2 51.8 60 29.98 WSW 10 10 Clear --- Anchorage, AK Map
Atlanta WEATHER KATL 07/27/2020 20:10 84.2 69.8 62 30.03 N 13 13 Broken Clouds --- ATLANTA, GA Map
Birmingham WEATHER KBHM 07/27/2020 19:53 86.0 73.4 66 30.03 NW 10 10 Broken Clouds --- Birmingham, AL Map
Boston WEATHER KBOS 07/27/2020 19:54 89.6 64.4 43 29.67 SW 13 13 Broken Clouds --- BOSTON, MA Map
Cheyenne WEATHER KCYS 07/27/2020 19:53 80.6 48.2 32 30.22 S 11 19 Overcast --- Cheyenne, WY Map
Chicago O'Hare WEATHER KORD 07/27/2020 19:51 82.4 60.8 48 29.91 WNW 10 10 Scattered Clouds --- CHICAGO, IL Map
Colorado Springs WEATHER KCOS 07/27/2020 19:54 68.0 60.8 78 30.30 S 11 11 Overcast 0.21 Colo. Springs, CO Map
Dallas WEATHER KADS 07/27/2020 19:47 89.6 66.2 46 29.94 E 10 10 Clear --- Dallas, TX Map
Denver WEATHER KDEN 07/27/2020 19:53 84.2 50.0 31 30.18 SE 10 17 Broken Clouds --- DENVER, CO Map
Detroit WEATHER KDET 07/27/2020 19:53 84.2 69.8 62 29.81 W 10 18 Clear --- Detroit, MI Map
Dover WEATHER KDOV 07/27/2020 19:56 86.0 69.8 59 29.82 SSW 8 8 Clear --- DOVER, DE Map
Fort Lauderdale WEATHER KFXE 07/27/2020 19:53 84.2 75.2 75 30.07 SE 8 8 Clear --- Fort Lauderdale, FL Map
Honolulu WEATHER PHNL 07/27/2020 19:53 87.8 66.2 49 30.00 ENE 23 32 Few Clouds --- Honolulu, HI Map
JFK Airport WEATHER KJFK 07/27/2020 19:51 87.8 69.8 55 29.76 SW 13 13 Broken Clouds --- JFK Airport, NYC Map
Key West WEATHER KEYW 07/27/2020 19:53 86.0 77.0 75 30.05 ESE 10 10 Scattered Clouds --- Key West, FL Map
Los Angeles WEATHER KLAX 07/27/2020 19:53 64.4 57.2 77 29.89 W 16 16 Broken Clouds --- Los Angeles, CA Map
Louisville WEATHER KSDF 07/27/2020 19:56 80.6 71.6 74 29.96 W 4 4 Broken Clouds --- Louisville, KY Map
Minneapolis WEATHER KMSP 07/27/2020 19:53 80.6 55.4 42 29.93 WNW 19 28 Few Clouds --- Minneapolis, MN Map
Morgantown WEATHER KMGW 07/27/2020 19:53 84.2 71.6 66 29.92 S 5 5 Scattered Clouds --- Morgantown, WV Map
New Orleans WEATHER KNEW 07/27/2020 19:53 82.4 73.4 74 29.99 S 9 9 Overcast --- New Orleans, LA Map
New York City WEATHER KNYC 07/27/2020 19:51 89.6 68.0 49 29.77 WSW 6 17 Clear --- New York, NY Map
Omaha WEATHER KOMA 07/27/2020 19:52 87.8 59.0 38 30.01 N 5 5 Few Clouds --- Omaha, NE Map
Philadelphia WEATHER KPHL 07/27/2020 19:54 91.4 69.8 49 29.79 SSW 12 12 Few Clouds --- Philadelphia, PA Map
Pittsburgh WEATHER KPIT 07/27/2020 20:31 71.6 69.8 94 29.89 W 6 6 Overcast 0.00 Pittsburgh, PA Map
Seattle WEATHER KSEA 07/27/2020 19:53 93.2 57.2 30 29.84 WNW 5 5 Few Clouds --- Seattle, WA Map
San Francisco WEATHER KSFO 07/27/2020 19:56 66.2 53.6 64 29.89 WNW 23 23 Few Clouds --- San Francisco, CA Map
Washington DC WEATHER KDCA 07/27/2020 19:52 91.4 69.8 49 29.83 SSW 8 8 Scattered Clouds --- Washington, DC Map